HAZ2127 ZSHC-ZSAM
Flight info
| Callsign | HAZ2127 |
|---|---|
| Flight time | 1h 11m |
| Altitude | 36100 |
| Route | UGAGO5E UGAGO A470 ENVEN ENVEN6W |
| Aircraft | A20N/M-SDE2E3FGHIRWXY/LB1 |
Departure
| Time | 2026-04-27 14:05 |
|---|---|
| Airport | Hangzhou Xiaoshan International Airport (ZSHC) |
Arrival
| Time | 2026-04-27 15:17 |
|---|---|
| Airport | Xiamen Gaoqi International Airport (ZSAM) |
| Time | Latitude | Longitude | Altitude | Speed | Heading |
|---|---|---|---|---|---|
| 2026-04-27 13:46 | 30.24025 | 120.42866 | 28 ft | 0 kts | 243° |
| 2026-04-27 13:52 | 30.24030 | 120.42877 | 29 ft | 2 kts | 242° |
| 2026-04-27 13:52 | 30.24037 | 120.42893 | 29 ft | 2 kts | 243° |
| 2026-04-27 13:53 | 30.24038 | 120.42926 | 29 ft | 2 kts | 299° |
| 2026-04-27 13:53 | 30.24029 | 120.42939 | 29 ft | 1 kts | 327° |
| 2026-04-27 13:53 | 30.24023 | 120.42942 | 29 ft | 1 kts | 337° |
| 2026-04-27 13:54 | 30.24020 | 120.42944 | 29 ft | 0 kts | 334° |
| 2026-04-27 13:58 | 30.24021 | 120.42944 | 29 ft | 0 kts | 334° |
| 2026-04-27 13:58 | 30.24022 | 120.42943 | 29 ft | 0 kts | 334° |
| 2026-04-27 13:58 | 30.24023 | 120.42942 | 29 ft | 0 kts | 334° |
| 2026-04-27 13:58 | 30.24025 | 120.42941 | 29 ft | 0 kts | 334° |
| 2026-04-27 13:59 | 30.24030 | 120.42938 | 28 ft | 1 kts | 333° |
| 2026-04-27 13:59 | 30.24042 | 120.42931 | 29 ft | 2 kts | 330° |
| 2026-04-27 13:59 | 30.24062 | 120.42916 | 29 ft | 4 kts | 325° |
| 2026-04-27 13:59 | 30.24089 | 120.42898 | 29 ft | 5 kts | 330° |
| 2026-04-27 14:00 | 30.24127 | 120.42879 | 29 ft | 6 kts | 337° |
| 2026-04-27 14:00 | 30.24171 | 120.42853 | 29 ft | 7 kts | 332° |
| 2026-04-27 14:00 | 30.24223 | 120.42827 | 29 ft | 8 kts | 337° |
| 2026-04-27 14:00 | 30.24283 | 120.42801 | 29 ft | 9 kts | 355° |
| 2026-04-27 14:01 | 30.24351 | 120.42799 | 29 ft | 10 kts | 342° |
| 2026-04-27 14:01 | 30.24419 | 120.42760 | 29 ft | 11 kts | 327° |
| 2026-04-27 14:01 | 30.24445 | 120.42680 | 29 ft | 13 kts | 255° |
| 2026-04-27 14:01 | 30.24377 | 120.42520 | 29 ft | 26 kts | 242° |
| 2026-04-27 14:02 | 30.24293 | 120.42333 | 29 ft | 25 kts | 241° |
| 2026-04-27 14:02 | 30.24213 | 120.42152 | 29 ft | 24 kts | 243° |
| 2026-04-27 14:02 | 30.24138 | 120.41981 | 29 ft | 23 kts | 242° |
| 2026-04-27 14:02 | 30.24065 | 120.41815 | 29 ft | 22 kts | 244° |
| 2026-04-27 14:03 | 30.23995 | 120.41656 | 29 ft | 21 kts | 244° |
| 2026-04-27 14:03 | 30.23929 | 120.41501 | 29 ft | 21 kts | 248° |
| 2026-04-27 14:03 | 30.23861 | 120.41353 | 29 ft | 20 kts | 243° |
| 2026-04-27 14:03 | 30.23796 | 120.41209 | 29 ft | 20 kts | 245° |
| 2026-04-27 14:04 | 30.23811 | 120.41083 | 29 ft | 18 kts | 330° |
| 2026-04-27 14:04 | 30.23921 | 120.41072 | 29 ft | 16 kts | 40° |
| 2026-04-27 14:04 | 30.23985 | 120.41206 | 29 ft | 37 kts | 62° |
| 2026-04-27 14:04 | 30.24225 | 120.41741 | 29 ft | 110 kts | 62° |
| 2026-04-27 14:05 | 30.24677 | 120.42748 | 66 ft | 164 kts | 62° |
| 2026-04-27 14:05 | 30.25310 | 120.43892 | 436 ft | 180 kts | 46° |
| 2026-04-27 14:05 | 30.26239 | 120.45013 | 780 ft | 205 kts | 54° |
| 2026-04-27 14:05 | 30.26761 | 120.46532 | 1597 ft | 205 kts | 73° |
| 2026-04-27 14:06 | 30.27217 | 120.48068 | 2425 ft | 205 kts | 65° |
| 2026-04-27 14:06 | 30.27789 | 120.49573 | 3181 ft | 208 kts | 64° |
| 2026-04-27 14:06 | 30.28401 | 120.51086 | 3944 ft | 211 kts | 63° |
| 2026-04-27 14:06 | 30.29046 | 120.52605 | 4669 ft | 216 kts | 63° |
| 2026-04-27 14:07 | 30.29739 | 120.54202 | 5356 ft | 225 kts | 63° |
| 2026-04-27 14:07 | 30.30442 | 120.55806 | 6101 ft | 230 kts | 63° |
| 2026-04-27 14:07 | 30.31171 | 120.57464 | 6869 ft | 235 kts | 63° |
| 2026-04-27 14:07 | 30.31910 | 120.59145 | 7618 ft | 240 kts | 63° |
| 2026-04-27 14:08 | 30.32846 | 120.60754 | 8348 ft | 243 kts | 41° |
| 2026-04-27 14:08 | 30.34281 | 120.61687 | 9035 ft | 242 kts | 13° |
| 2026-04-27 14:08 | 30.35941 | 120.61776 | 9718 ft | 241 kts | 346° |
| 2026-04-27 14:08 | 30.37465 | 120.61004 | 10357 ft | 238 kts | 319° |
| 2026-04-27 14:09 | 30.38509 | 120.59582 | 11013 ft | 234 kts | 293° |
| 2026-04-27 14:09 | 30.38913 | 120.57814 | 11724 ft | 230 kts | 270° |
| 2026-04-27 14:09 | 30.38651 | 120.56029 | 12431 ft | 227 kts | 250° |
| 2026-04-27 14:09 | 30.37993 | 120.54389 | 13156 ft | 225 kts | 243° |
| 2026-04-27 14:10 | 30.37265 | 120.52811 | 13787 ft | 226 kts | 243° |
| 2026-04-27 14:10 | 30.36527 | 120.51209 | 14383 ft | 227 kts | 243° |
| 2026-04-27 14:10 | 30.35792 | 120.49594 | 14971 ft | 230 kts | 244° |
| 2026-04-27 14:10 | 30.35050 | 120.47946 | 15548 ft | 233 kts | 244° |
| 2026-04-27 14:11 | 30.34299 | 120.46262 | 16081 ft | 239 kts | 244° |
| 2026-04-27 14:11 | 30.33511 | 120.44482 | 16256 ft | 262 kts | 244° |
| 2026-04-27 14:11 | 30.32653 | 120.42540 | 16578 ft | 279 kts | 244° |
| 2026-04-27 14:11 | 30.31746 | 120.40489 | 16883 ft | 297 kts | 244° |
| 2026-04-27 14:12 | 30.30770 | 120.38289 | 17181 ft | 314 kts | 244° |
| 2026-04-27 14:12 | 30.29753 | 120.35992 | 17462 ft | 330 kts | 244° |
| 2026-04-27 14:12 | 30.28685 | 120.33586 | 17762 ft | 346 kts | 244° |
| 2026-04-27 14:12 | 30.27557 | 120.31047 | 18034 ft | 361 kts | 244° |
| 2026-04-27 14:13 | 30.26390 | 120.28417 | 18262 ft | 376 kts | 244° |
| 2026-04-27 14:13 | 30.25174 | 120.25681 | 18587 ft | 388 kts | 244° |
| 2026-04-27 14:13 | 30.23935 | 120.22897 | 19047 ft | 395 kts | 244° |
| 2026-04-27 14:13 | 30.22668 | 120.20052 | 19605 ft | 397 kts | 244° |
| 2026-04-27 14:14 | 30.21416 | 120.17243 | 20114 ft | 400 kts | 244° |
| 2026-04-27 14:14 | 30.20134 | 120.14368 | 20630 ft | 403 kts | 244° |
| 2026-04-27 14:14 | 30.18852 | 120.11500 | 21139 ft | 405 kts | 244° |
| 2026-04-27 14:14 | 30.17553 | 120.08598 | 21618 ft | 409 kts | 244° |
| 2026-04-27 14:15 | 30.16248 | 120.05687 | 22089 ft | 411 kts | 244° |
| 2026-04-27 14:15 | 30.14918 | 120.02723 | 22563 ft | 413 kts | 244° |
| 2026-04-27 14:15 | 30.13592 | 119.99762 | 23003 ft | 416 kts | 245° |
| 2026-04-27 14:15 | 30.12266 | 119.96809 | 23427 ft | 419 kts | 244° |
| 2026-04-27 14:16 | 30.10925 | 119.93825 | 23824 ft | 423 kts | 245° |
| 2026-04-27 14:16 | 30.09564 | 119.90797 | 24266 ft | 425 kts | 245° |
| 2026-04-27 14:16 | 30.08208 | 119.87786 | 24544 ft | 427 kts | 245° |
| 2026-04-27 14:16 | 30.06842 | 119.84754 | 24567 ft | 425 kts | 245° |
| 2026-04-27 14:17 | 30.05444 | 119.81714 | 24565 ft | 427 kts | 242° |
| 2026-04-27 14:17 | 30.03703 | 119.78958 | 24565 ft | 431 kts | 232° |
| 2026-04-27 14:17 | 30.01512 | 119.76561 | 24570 ft | 436 kts | 222° |
| 2026-04-27 14:17 | 29.98978 | 119.74637 | 24572 ft | 441 kts | 213° |
| 2026-04-27 14:18 | 29.96261 | 119.72957 | 24576 ft | 441 kts | 212° |
| 2026-04-27 14:18 | 29.93515 | 119.71305 | 24578 ft | 441 kts | 212° |
| 2026-04-27 14:18 | 29.90809 | 119.69682 | 24580 ft | 441 kts | 212° |
| 2026-04-27 14:18 | 29.88031 | 119.68157 | 24583 ft | 445 kts | 206° |
| 2026-04-27 14:19 | 29.85075 | 119.67037 | 24589 ft | 450 kts | 199° |
| 2026-04-27 14:19 | 29.81958 | 119.66361 | 24594 ft | 454 kts | 191° |
| 2026-04-27 14:19 | 29.78820 | 119.66098 | 24599 ft | 456 kts | 187° |
| 2026-04-27 14:19 | 29.75627 | 119.65935 | 24601 ft | 457 kts | 187° |
| 2026-04-27 14:20 | 29.72438 | 119.65746 | 24605 ft | 456 kts | 188° |
| 2026-04-27 14:20 | 29.69294 | 119.65534 | 24607 ft | 456 kts | 188° |
| 2026-04-27 14:20 | 29.66120 | 119.65312 | 24607 ft | 456 kts | 188° |
| 2026-04-27 14:20 | 29.62946 | 119.65099 | 24606 ft | 457 kts | 187° |
| 2026-04-27 14:21 | 29.59783 | 119.64997 | 24606 ft | 458 kts | 186° |
| 2026-04-27 14:21 | 29.56577 | 119.64917 | 24606 ft | 457 kts | 185° |
| 2026-04-27 14:21 | 29.53376 | 119.64816 | 24604 ft | 457 kts | 186° |
| 2026-04-27 14:21 | 29.50238 | 119.64638 | 24604 ft | 456 kts | 187° |
| 2026-04-27 14:22 | 29.47039 | 119.64428 | 24599 ft | 456 kts | 187° |
| 2026-04-27 14:22 | 29.43890 | 119.64220 | 24595 ft | 457 kts | 187° |
| 2026-04-27 14:22 | 29.40725 | 119.64016 | 24591 ft | 457 kts | 187° |
| 2026-04-27 14:22 | 29.37517 | 119.63813 | 24586 ft | 456 kts | 187° |
| 2026-04-27 14:23 | 29.34367 | 119.63617 | 24581 ft | 457 kts | 187° |
| 2026-04-27 14:23 | 29.31167 | 119.63420 | 24574 ft | 457 kts | 187° |
| 2026-04-27 14:23 | 29.27996 | 119.63226 | 24573 ft | 457 kts | 187° |
| 2026-04-27 14:23 | 29.24833 | 119.63034 | 24567 ft | 457 kts | 187° |
| 2026-04-27 14:24 | 29.21627 | 119.62838 | 24561 ft | 457 kts | 187° |
| 2026-04-27 14:24 | 29.18483 | 119.62648 | 24560 ft | 456 kts | 187° |
| 2026-04-27 14:24 | 29.15310 | 119.62455 | 24557 ft | 456 kts | 187° |
| 2026-04-27 14:24 | 29.12135 | 119.62262 | 24556 ft | 456 kts | 187° |
| 2026-04-27 14:25 | 29.08952 | 119.62067 | 24554 ft | 456 kts | 187° |
| 2026-04-27 14:25 | 29.05812 | 119.61872 | 24548 ft | 457 kts | 187° |
| 2026-04-27 14:25 | 29.02634 | 119.61673 | 24543 ft | 457 kts | 187° |
| 2026-04-27 14:25 | 28.99441 | 119.61472 | 24540 ft | 457 kts | 187° |
| 2026-04-27 14:26 | 28.96273 | 119.61275 | 24540 ft | 457 kts | 187° |
| 2026-04-27 14:26 | 28.93088 | 119.61076 | 24541 ft | 457 kts | 187° |
| 2026-04-27 14:26 | 28.89901 | 119.60877 | 24548 ft | 457 kts | 187° |
| 2026-04-27 14:26 | 28.86720 | 119.60679 | 24564 ft | 457 kts | 186° |
| 2026-04-27 14:27 | 28.83548 | 119.60484 | 24574 ft | 457 kts | 187° |
| 2026-04-27 14:27 | 28.80377 | 119.60290 | 24584 ft | 457 kts | 187° |
| 2026-04-27 14:27 | 28.77211 | 119.60093 | 24594 ft | 456 kts | 187° |
| 2026-04-27 14:27 | 28.74027 | 119.59894 | 24606 ft | 457 kts | 187° |
| 2026-04-27 14:28 | 28.70860 | 119.59699 | 24611 ft | 457 kts | 187° |
| 2026-04-27 14:28 | 28.67650 | 119.59502 | 24611 ft | 457 kts | 187° |
| 2026-04-27 14:28 | 28.64471 | 119.59303 | 24610 ft | 458 kts | 187° |
| 2026-04-27 14:28 | 28.61287 | 119.59106 | 24606 ft | 458 kts | 187° |
| 2026-04-27 14:29 | 28.58105 | 119.58911 | 24597 ft | 458 kts | 187° |
| 2026-04-27 14:29 | 28.54902 | 119.58714 | 24583 ft | 458 kts | 187° |
| 2026-04-27 14:29 | 28.51749 | 119.58521 | 24584 ft | 457 kts | 186° |
| 2026-04-27 14:29 | 28.48568 | 119.58325 | 24580 ft | 458 kts | 187° |
| 2026-04-27 14:30 | 28.45348 | 119.58126 | 24577 ft | 458 kts | 187° |
| 2026-04-27 14:30 | 28.42162 | 119.57942 | 24581 ft | 458 kts | 186° |
| 2026-04-27 14:30 | 28.38979 | 119.57767 | 24580 ft | 458 kts | 186° |
| 2026-04-27 14:30 | 28.35832 | 119.57594 | 24586 ft | 458 kts | 186° |
| 2026-04-27 14:31 | 28.32651 | 119.57418 | 24589 ft | 458 kts | 186° |
| 2026-04-27 14:31 | 28.29428 | 119.57242 | 24595 ft | 458 kts | 186° |
| 2026-04-27 14:31 | 28.26261 | 119.57067 | 24600 ft | 458 kts | 186° |
| 2026-04-27 14:31 | 28.23080 | 119.56893 | 24600 ft | 459 kts | 186° |
| 2026-04-27 14:32 | 28.19903 | 119.56718 | 24607 ft | 459 kts | 186° |
| 2026-04-27 14:32 | 28.16677 | 119.56541 | 24615 ft | 459 kts | 186° |
| 2026-04-27 14:32 | 28.13508 | 119.56365 | 24618 ft | 459 kts | 186° |
| 2026-04-27 14:32 | 28.10276 | 119.56197 | 24630 ft | 460 kts | 185° |
| 2026-04-27 14:33 | 28.07097 | 119.56132 | 24643 ft | 460 kts | 184° |
| 2026-04-27 14:33 | 28.03882 | 119.56080 | 24652 ft | 460 kts | 184° |
| 2026-04-27 14:33 | 28.00698 | 119.56033 | 24659 ft | 460 kts | 184° |
| 2026-04-27 14:33 | 27.97464 | 119.55983 | 24668 ft | 459 kts | 184° |
| 2026-04-27 14:34 | 27.94275 | 119.55936 | 24672 ft | 459 kts | 184° |
| 2026-04-27 14:34 | 27.91094 | 119.55888 | 24668 ft | 460 kts | 184° |
| 2026-04-27 14:34 | 27.87852 | 119.55863 | 24665 ft | 460 kts | 183° |
| 2026-04-27 14:34 | 27.84655 | 119.55845 | 24658 ft | 460 kts | 183° |
| 2026-04-27 14:35 | 27.81446 | 119.55830 | 24654 ft | 461 kts | 183° |
| 2026-04-27 14:35 | 27.78224 | 119.55814 | 24652 ft | 461 kts | 183° |
| 2026-04-27 14:35 | 27.75033 | 119.55797 | 24644 ft | 461 kts | 183° |
| 2026-04-27 14:35 | 27.71803 | 119.55778 | 24642 ft | 461 kts | 183° |
| 2026-04-27 14:36 | 27.68598 | 119.55763 | 24646 ft | 461 kts | 184° |
| 2026-04-27 14:36 | 27.65398 | 119.55744 | 24653 ft | 460 kts | 183° |
| 2026-04-27 14:36 | 27.62219 | 119.55727 | 24660 ft | 461 kts | 184° |
| 2026-04-27 14:36 | 27.58999 | 119.55709 | 24663 ft | 460 kts | 183° |
| 2026-04-27 14:37 | 27.55783 | 119.55691 | 24675 ft | 460 kts | 184° |
| 2026-04-27 14:37 | 27.52561 | 119.55674 | 24681 ft | 460 kts | 183° |
| 2026-04-27 14:37 | 27.49390 | 119.55657 | 24687 ft | 460 kts | 184° |
| 2026-04-27 14:37 | 27.46177 | 119.55638 | 24691 ft | 460 kts | 183° |
| 2026-04-27 14:38 | 27.42959 | 119.55621 | 24683 ft | 460 kts | 183° |
| 2026-04-27 14:38 | 27.39741 | 119.55610 | 24675 ft | 460 kts | 183° |
| 2026-04-27 14:38 | 27.36574 | 119.55605 | 24668 ft | 461 kts | 183° |
| 2026-04-27 14:38 | 27.33349 | 119.55607 | 24660 ft | 461 kts | 183° |
| 2026-04-27 14:39 | 27.30112 | 119.55603 | 24652 ft | 461 kts | 183° |
| 2026-04-27 14:39 | 27.26911 | 119.55598 | 24643 ft | 461 kts | 183° |
| 2026-04-27 14:39 | 27.23721 | 119.55586 | 24643 ft | 461 kts | 183° |
| 2026-04-27 14:39 | 27.20498 | 119.55565 | 24637 ft | 461 kts | 183° |
| 2026-04-27 14:40 | 27.17307 | 119.55541 | 24631 ft | 460 kts | 184° |
| 2026-04-27 14:40 | 27.14071 | 119.55517 | 24632 ft | 460 kts | 183° |
| 2026-04-27 14:40 | 27.10884 | 119.55494 | 24632 ft | 461 kts | 183° |
| 2026-04-27 14:40 | 27.07673 | 119.55473 | 24630 ft | 461 kts | 183° |
| 2026-04-27 14:41 | 27.04478 | 119.55451 | 24633 ft | 461 kts | 183° |
| 2026-04-27 14:41 | 27.01246 | 119.55431 | 24630 ft | 461 kts | 183° |
| 2026-04-27 14:41 | 26.98012 | 119.55410 | 24627 ft | 461 kts | 183° |
| 2026-04-27 14:41 | 26.94815 | 119.55389 | 24625 ft | 462 kts | 183° |
| 2026-04-27 14:42 | 26.91615 | 119.55367 | 24625 ft | 461 kts | 183° |
| 2026-04-27 14:42 | 26.88378 | 119.55347 | 24623 ft | 461 kts | 183° |
| 2026-04-27 14:42 | 26.85193 | 119.55328 | 24623 ft | 461 kts | 183° |
| 2026-04-27 14:42 | 26.81974 | 119.55308 | 24625 ft | 461 kts | 183° |
| 2026-04-27 14:43 | 26.78743 | 119.55288 | 24622 ft | 461 kts | 183° |
| 2026-04-27 14:43 | 26.75544 | 119.55267 | 24620 ft | 462 kts | 183° |
| 2026-04-27 14:43 | 26.72289 | 119.55246 | 24618 ft | 462 kts | 183° |
| 2026-04-27 14:43 | 26.69105 | 119.55227 | 24616 ft | 462 kts | 183° |
| 2026-04-27 14:44 | 26.65895 | 119.55206 | 24613 ft | 462 kts | 183° |
| 2026-04-27 14:44 | 26.62655 | 119.55187 | 24611 ft | 462 kts | 183° |
| 2026-04-27 14:44 | 26.59451 | 119.55167 | 24608 ft | 462 kts | 183° |
| 2026-04-27 14:44 | 26.56202 | 119.55148 | 24605 ft | 462 kts | 183° |
| 2026-04-27 14:45 | 26.53015 | 119.55128 | 24604 ft | 462 kts | 183° |
| 2026-04-27 14:45 | 26.49803 | 119.55108 | 24603 ft | 462 kts | 183° |
| 2026-04-27 14:45 | 26.46543 | 119.55088 | 24600 ft | 462 kts | 183° |
| 2026-04-27 14:45 | 26.43356 | 119.55068 | 24600 ft | 462 kts | 183° |
| 2026-04-27 14:46 | 26.40140 | 119.55048 | 24599 ft | 462 kts | 183° |
| 2026-04-27 14:46 | 26.36899 | 119.55024 | 24598 ft | 462 kts | 183° |
| 2026-04-27 14:46 | 26.33670 | 119.54987 | 24596 ft | 463 kts | 183° |
| 2026-04-27 14:46 | 26.30480 | 119.54948 | 24596 ft | 462 kts | 183° |
| 2026-04-27 14:47 | 26.27247 | 119.54907 | 24594 ft | 462 kts | 184° |
| 2026-04-27 14:47 | 26.24049 | 119.54713 | 24593 ft | 461 kts | 188° |
| 2026-04-27 14:47 | 26.20847 | 119.54208 | 24591 ft | 460 kts | 193° |
| 2026-04-27 14:47 | 26.17728 | 119.53399 | 24588 ft | 458 kts | 198° |
| 2026-04-27 14:48 | 26.14682 | 119.52393 | 24590 ft | 458 kts | 200° |
| 2026-04-27 14:48 | 26.08576 | 119.50294 | 24588 ft | 458 kts | 200° |
| 2026-04-27 14:48 | 26.05524 | 119.49244 | 24587 ft | 457 kts | 200° |
| 2026-04-27 14:49 | 26.02481 | 119.48202 | 24585 ft | 458 kts | 200° |
| 2026-04-27 14:49 | 25.99443 | 119.47164 | 24582 ft | 457 kts | 200° |
| 2026-04-27 14:49 | 25.96373 | 119.46118 | 24582 ft | 457 kts | 200° |
| 2026-04-27 14:49 | 25.93350 | 119.45090 | 24583 ft | 457 kts | 200° |
| 2026-04-27 14:50 | 25.90322 | 119.44060 | 24584 ft | 457 kts | 200° |
| 2026-04-27 14:50 | 25.87242 | 119.43014 | 24588 ft | 457 kts | 200° |
| 2026-04-27 14:50 | 25.84204 | 119.41981 | 24588 ft | 457 kts | 200° |
| 2026-04-27 14:50 | 25.81178 | 119.40955 | 24591 ft | 457 kts | 200° |
| 2026-04-27 14:51 | 25.78117 | 119.39906 | 24596 ft | 457 kts | 201° |
| 2026-04-27 14:51 | 25.75202 | 119.38494 | 24595 ft | 453 kts | 211° |
| 2026-04-27 14:51 | 25.72582 | 119.36592 | 24493 ft | 445 kts | 221° |
| 2026-04-27 14:51 | 25.70321 | 119.34311 | 23983 ft | 438 kts | 228° |
| 2026-04-27 14:52 | 25.68232 | 119.31874 | 23285 ft | 435 kts | 229° |
| 2026-04-27 14:52 | 25.66203 | 119.29456 | 22951 ft | 434 kts | 229° |
| 2026-04-27 14:52 | 25.64139 | 119.26995 | 22657 ft | 434 kts | 229° |
| 2026-04-27 14:52 | 25.62090 | 119.24564 | 22376 ft | 432 kts | 229° |
| 2026-04-27 14:53 | 25.60030 | 119.22134 | 22097 ft | 429 kts | 229° |
| 2026-04-27 14:53 | 25.57982 | 119.19723 | 21816 ft | 427 kts | 229° |
| 2026-04-27 14:53 | 25.55951 | 119.17339 | 21540 ft | 425 kts | 229° |
| 2026-04-27 14:53 | 25.53935 | 119.14973 | 21261 ft | 422 kts | 229° |
| 2026-04-27 14:54 | 25.51938 | 119.12634 | 20982 ft | 420 kts | 229° |
| 2026-04-27 14:54 | 25.49948 | 119.10304 | 20703 ft | 418 kts | 229° |
| 2026-04-27 14:54 | 25.47955 | 119.07972 | 20422 ft | 415 kts | 229° |
| 2026-04-27 14:54 | 25.45968 | 119.05650 | 20140 ft | 412 kts | 229° |
| 2026-04-27 14:55 | 25.43996 | 119.03342 | 19858 ft | 410 kts | 228° |
| 2026-04-27 14:55 | 25.42063 | 119.01081 | 19578 ft | 408 kts | 228° |
| 2026-04-27 14:55 | 25.40111 | 118.98801 | 19299 ft | 405 kts | 228° |
| 2026-04-27 14:55 | 25.38168 | 118.96534 | 19017 ft | 402 kts | 228° |
| 2026-04-27 14:56 | 25.36261 | 118.94310 | 18735 ft | 400 kts | 228° |
| 2026-04-27 14:56 | 25.34364 | 118.92098 | 18456 ft | 398 kts | 228° |
| 2026-04-27 14:56 | 25.32481 | 118.89856 | 18172 ft | 396 kts | 229° |
| 2026-04-27 14:56 | 25.30621 | 118.87599 | 17886 ft | 394 kts | 229° |
| 2026-04-27 14:57 | 25.28784 | 118.85367 | 17602 ft | 393 kts | 229° |
| 2026-04-27 14:57 | 25.26938 | 118.83127 | 17315 ft | 390 kts | 229° |
| 2026-04-27 14:57 | 25.25125 | 118.80929 | 17031 ft | 389 kts | 229° |
| 2026-04-27 14:57 | 25.23309 | 118.78732 | 16745 ft | 387 kts | 229° |
| 2026-04-27 14:58 | 25.21495 | 118.76538 | 16456 ft | 386 kts | 229° |
| 2026-04-27 14:58 | 25.19693 | 118.74359 | 16168 ft | 384 kts | 229° |
| 2026-04-27 14:58 | 25.17883 | 118.72173 | 15880 ft | 383 kts | 229° |
| 2026-04-27 14:58 | 25.16104 | 118.70027 | 15597 ft | 381 kts | 228° |
| 2026-04-27 14:59 | 25.14304 | 118.67856 | 15306 ft | 380 kts | 228° |
| 2026-04-27 14:59 | 25.12526 | 118.65713 | 15022 ft | 379 kts | 228° |
| 2026-04-27 14:59 | 25.10740 | 118.63561 | 14729 ft | 378 kts | 228° |
| 2026-04-27 14:59 | 25.08973 | 118.61438 | 14444 ft | 377 kts | 227° |
| 2026-04-27 15:00 | 25.07176 | 118.59352 | 14155 ft | 376 kts | 227° |
| 2026-04-27 15:00 | 25.05351 | 118.57262 | 13865 ft | 375 kts | 227° |
| 2026-04-27 15:00 | 25.03543 | 118.55193 | 13579 ft | 373 kts | 226° |
| 2026-04-27 15:00 | 25.01760 | 118.53151 | 13293 ft | 372 kts | 226° |
| 2026-04-27 15:01 | 24.99954 | 118.51080 | 12995 ft | 372 kts | 226° |
| 2026-04-27 15:01 | 24.98180 | 118.49046 | 12707 ft | 370 kts | 226° |
| 2026-04-27 15:01 | 24.96379 | 118.46979 | 12415 ft | 370 kts | 226° |
| 2026-04-27 15:01 | 24.94616 | 118.44962 | 12130 ft | 369 kts | 226° |
| 2026-04-27 15:02 | 24.92819 | 118.42909 | 11839 ft | 368 kts | 226° |
| 2026-04-27 15:02 | 24.91050 | 118.40887 | 11554 ft | 366 kts | 226° |
| 2026-04-27 15:02 | 24.89299 | 118.38886 | 11268 ft | 366 kts | 226° |
| 2026-04-27 15:02 | 24.87520 | 118.36852 | 10976 ft | 364 kts | 226° |
| 2026-04-27 15:03 | 24.85777 | 118.34861 | 10692 ft | 363 kts | 226° |
| 2026-04-27 15:03 | 24.84045 | 118.32884 | 10401 ft | 354 kts | 226° |
| 2026-04-27 15:03 | 24.82350 | 118.30947 | 10108 ft | 343 kts | 225° |
| 2026-04-27 15:03 | 24.80722 | 118.29089 | 9911 ft | 330 kts | 225° |
| 2026-04-27 15:04 | 24.79179 | 118.27328 | 9895 ft | 312 kts | 225° |
| 2026-04-27 15:04 | 24.77717 | 118.25661 | 9892 ft | 294 kts | 225° |
| 2026-04-27 15:04 | 24.76324 | 118.24071 | 9839 ft | 280 kts | 225° |
| 2026-04-27 15:04 | 24.74986 | 118.22547 | 9447 ft | 280 kts | 225° |
| 2026-04-27 15:05 | 24.73627 | 118.21001 | 9001 ft | 282 kts | 225° |
| 2026-04-27 15:05 | 24.72253 | 118.19438 | 8615 ft | 280 kts | 225° |
| 2026-04-27 15:05 | 24.70910 | 118.17909 | 8251 ft | 279 kts | 225° |
| 2026-04-27 15:05 | 24.69564 | 118.16378 | 7864 ft | 278 kts | 226° |
| 2026-04-27 15:06 | 24.68229 | 118.14859 | 7480 ft | 277 kts | 226° |
| 2026-04-27 15:06 | 24.66890 | 118.13337 | 7104 ft | 275 kts | 226° |
| 2026-04-27 15:06 | 24.65567 | 118.11832 | 6724 ft | 274 kts | 226° |
| 2026-04-27 15:06 | 24.64254 | 118.10339 | 6351 ft | 273 kts | 226° |
| 2026-04-27 15:07 | 24.62935 | 118.08840 | 6010 ft | 270 kts | 226° |
| 2026-04-27 15:07 | 24.61629 | 118.07355 | 5907 ft | 270 kts | 226° |
| 2026-04-27 15:07 | 24.60326 | 118.05875 | 5903 ft | 271 kts | 226° |
| 2026-04-27 15:07 | 24.59005 | 118.04376 | 5904 ft | 271 kts | 226° |
| 2026-04-27 15:08 | 24.57688 | 118.02881 | 5904 ft | 271 kts | 226° |
| 2026-04-27 15:08 | 24.56382 | 118.01397 | 5905 ft | 272 kts | 226° |
| 2026-04-27 15:08 | 24.55099 | 117.99869 | 5905 ft | 272 kts | 228° |
| 2026-04-27 15:08 | 24.53831 | 117.98315 | 5903 ft | 271 kts | 228° |
| 2026-04-27 15:09 | 24.52566 | 117.96764 | 5898 ft | 269 kts | 228° |
| 2026-04-27 15:09 | 24.51339 | 117.95265 | 5753 ft | 260 kts | 228° |
| 2026-04-27 15:09 | 24.50147 | 117.93814 | 5588 ft | 251 kts | 228° |
| 2026-04-27 15:09 | 24.49002 | 117.92423 | 5425 ft | 243 kts | 228° |
| 2026-04-27 15:10 | 24.47890 | 117.91071 | 5269 ft | 235 kts | 228° |
| 2026-04-27 15:10 | 24.46668 | 117.89922 | 5078 ft | 227 kts | 202° |
| 2026-04-27 15:10 | 24.45141 | 117.89784 | 4829 ft | 223 kts | 162° |
| 2026-04-27 15:10 | 24.43866 | 117.90682 | 4577 ft | 220 kts | 139° |
| 2026-04-27 15:11 | 24.42734 | 117.91776 | 4417 ft | 213 kts | 141° |
| 2026-04-27 15:11 | 24.41659 | 117.92855 | 4249 ft | 206 kts | 126° |
| 2026-04-27 15:11 | 24.41282 | 117.94319 | 4092 ft | 198 kts | 82° |
| 2026-04-27 15:11 | 24.41885 | 117.95597 | 4041 ft | 181 kts | 52° |
| 2026-04-27 15:12 | 24.42677 | 117.96601 | 3830 ft | 170 kts | 50° |
| 2026-04-27 15:12 | 24.43435 | 117.97566 | 3609 ft | 159 kts | 51° |
| 2026-04-27 15:12 | 24.44122 | 117.98470 | 3390 ft | 149 kts | 53° |
| 2026-04-27 15:12 | 24.44768 | 117.99321 | 3114 ft | 144 kts | 52° |
| 2026-04-27 15:13 | 24.45405 | 118.00161 | 2787 ft | 143 kts | 52° |
| 2026-04-27 15:13 | 24.46031 | 118.01009 | 2433 ft | 142 kts | 53° |
| 2026-04-27 15:13 | 24.46644 | 118.01859 | 2196 ft | 142 kts | 53° |
| 2026-04-27 15:13 | 24.47252 | 118.02710 | 2009 ft | 143 kts | 53° |
| 2026-04-27 15:14 | 24.47865 | 118.03573 | 1819 ft | 144 kts | 53° |
| 2026-04-27 15:14 | 24.48487 | 118.04449 | 1626 ft | 143 kts | 52° |
| 2026-04-27 15:14 | 24.49096 | 118.05305 | 1441 ft | 143 kts | 52° |
| 2026-04-27 15:14 | 24.49711 | 118.06168 | 1255 ft | 142 kts | 52° |
| 2026-04-27 15:15 | 24.50318 | 118.07021 | 1073 ft | 141 kts | 52° |
| 2026-04-27 15:15 | 24.50926 | 118.07873 | 894 ft | 140 kts | 52° |
| 2026-04-27 15:15 | 24.51523 | 118.08710 | 712 ft | 140 kts | 52° |
| 2026-04-27 15:15 | 24.52132 | 118.09557 | 535 ft | 140 kts | 52° |
| 2026-04-27 15:16 | 24.52734 | 118.10397 | 350 ft | 139 kts | 52° |
| 2026-04-27 15:16 | 24.53325 | 118.11237 | 146 ft | 138 kts | 52° |
| 2026-04-27 15:16 | 24.53905 | 118.12049 | 69 ft | 121 kts | 51° |
| 2026-04-27 15:16 | 24.54318 | 118.12636 | 55 ft | 82 kts | 51° |
| 2026-04-27 15:17 | 24.54520 | 118.12997 | 48 ft | 31 kts | 76° |
| 2026-04-27 15:17 | 24.54555 | 118.13200 | 48 ft | 26 kts | 78° |
| 2026-04-27 15:17 | 24.54638 | 118.13369 | 47 ft | 25 kts | 52° |
| 2026-04-27 15:17 | 24.54745 | 118.13523 | 44 ft | 25 kts | 52° |
| 2026-04-27 15:18 | 24.54822 | 118.13625 | 42 ft | 10 kts | 53° |
| 2026-04-27 15:18 | 24.54863 | 118.13684 | 40 ft | 9 kts | 51° |
| 2026-04-27 15:18 | 24.54856 | 118.13757 | 39 ft | 11 kts | 131° |
| 2026-04-27 15:18 | 24.54789 | 118.13812 | 38 ft | 12 kts | 142° |
| 2026-04-27 15:19 | 24.54727 | 118.13870 | 36 ft | 11 kts | 126° |
| 2026-04-27 15:19 | 24.54726 | 118.13914 | 35 ft | 3 kts | 61° |
| 2026-04-27 15:19 | 24.54746 | 118.13940 | 34 ft | 4 kts | 49° |
| 2026-04-27 15:19 | 24.54759 | 118.13957 | 33 ft | 0 kts | 51° |
| 2026-04-27 15:20 | 24.54760 | 118.13959 | 33 ft | 0 kts | 51° |